Main page
METAR-TAF:

METAR-TAF

Airports :

Governor Francisco Gabrielli International Airport

Mendoza, Argentina

latitude: 32-50S, longitude: 068-47W, elevation: 705 m

Current weather observation

The report was made 55 minutes ago, at 22:00 UTC
Calm wind
Temperature 12°C
Humidity 50%
Pressure 1015 hPa
Visibility 10 km or more
Broken clouds at a height of 4500 ft

METAR: SAME 212200Z 00000KT 9999 BKN045 12/02 Q1015

Time: 19:55 (22:55 UTC)

Forecast

The report was made 5 hours and 55 minutes ago, at 17:00 UTC
Forecast valid from 21 at 18 UTC to 22 at 18 UTC
Wind 5 kt from the South
Visibility 10 km or more
Overcast at a height of 4000 ft
Becoming
from 21 at 21 UTC to 21 at 23 UTC
Broken clouds at a height of 4000 ft
Becoming
from 22 at 02 UTC to 22 at 04 UTC
Few clouds at a height of 4000 ft

TAF: SAME 211700Z 2118/2218 18005KT 9999 OVC040 TX14/2120Z TN07/2210Z BECMG 2121/2123 BKN040 BECMG 2202/2204 FEW040

Weather observations and forecasts of more than 4000 airports (METAR and TAF reports).

The available stations are represented by yellow and red dots on the map.

Hover mouse over dot to see the name of the station.

Then click to see weather observations and forecasts.

To change the map : click on the green buttons with a black cross to zoom in, on the green button with a dash to zoom out, or on the green arrows for adjacent maps.


METAR-TAF: